createdAt,value
2018-05-02T00:00:05.463Z,8.44
2018-05-02T00:01:05.497Z,8.33
2018-05-02T00:02:05.524Z,8.34
2018-05-02T00:03:05.554Z,8.28
2018-05-02T00:04:05.584Z,8.37
2018-05-02T00:05:05.614Z,8.33
2018-05-02T00:06:05.644Z,8.22
2018-05-02T00:07:05.675Z,8.20
2018-05-02T00:08:05.704Z,8.19
2018-05-02T00:09:05.735Z,8.19
2018-05-02T00:10:05.770Z,8.19
2018-05-02T00:11:05.793Z,8.23
2018-05-02T00:12:05.829Z,8.33
2018-05-02T00:13:05.859Z,8.34
2018-05-02T00:14:05.884Z,8.45
2018-05-02T00:15:05.916Z,8.40
2018-05-02T00:16:05.945Z,8.48
2018-05-02T00:17:05.974Z,8.47
2018-05-02T00:18:06.024Z,8.47
2018-05-02T00:19:06.035Z,8.48
2018-05-02T00:20:06.064Z,8.47
2018-05-02T00:21:06.094Z,8.44
2018-05-02T00:22:06.127Z,8.52
2018-05-02T00:23:06.157Z,8.53
2018-05-02T00:24:06.184Z,8.50
2018-05-02T00:25:06.214Z,8.45
2018-05-02T00:26:06.243Z,8.45
2018-05-02T00:27:06.274Z,8.34
2018-05-02T00:28:06.303Z,8.34
2018-05-02T00:29:06.335Z,8.20
2018-05-02T00:30:06.364Z,8.23
2018-05-02T00:31:06.394Z,8.22
2018-05-02T00:32:06.423Z,8.33
2018-05-02T00:33:06.453Z,8.33
2018-05-02T00:34:06.538Z,8.29
2018-05-02T00:35:06.514Z,8.37
2018-05-02T00:36:06.543Z,8.33
2018-05-02T00:37:06.575Z,8.45
2018-05-02T00:38:06.604Z,8.43
2018-05-02T00:39:06.634Z,8.53
2018-05-02T00:40:06.663Z,8.62
2018-05-02T00:41:06.694Z,8.62
2018-05-02T00:42:06.724Z,8.66
2018-05-02T00:43:06.753Z,8.62
2018-05-02T00:44:06.783Z,8.71
2018-05-02T00:45:06.814Z,8.77
2018-05-02T00:46:06.843Z,8.68
2018-05-02T00:47:06.874Z,8.63
2018-05-02T00:48:06.903Z,8.66
2018-05-02T00:49:06.934Z,8.62
2018-05-02T00:50:06.965Z,8.65
2018-05-02T00:51:06.995Z,8.68
2018-05-02T00:52:07.024Z,8.66
2018-05-02T00:53:07.055Z,8.80
2018-05-02T00:54:07.086Z,8.95
2018-05-02T00:55:07.116Z,8.92
2018-05-02T00:56:07.145Z,8.91
2018-05-02T00:57:07.175Z,8.99
2018-05-02T00:58:07.204Z,8.95
2018-05-02T00:59:07.236Z,9.04
2018-05-02T01:00:07.264Z,9.13
2018-05-02T01:01:07.297Z,9.18
2018-05-02T01:02:07.326Z,9.21
2018-05-02T01:03:07.357Z,9.29
2018-05-02T01:04:07.388Z,9.28
2018-05-02T01:05:07.417Z,9.31
2018-05-02T01:06:07.448Z,9.33
2018-05-02T01:07:07.478Z,9.18
2018-05-02T01:08:07.508Z,8.98
2018-05-02T01:09:07.540Z,9.17
2018-05-02T01:10:07.573Z,8.98
2018-05-02T01:11:07.600Z,8.91
2018-05-02T01:12:07.630Z,9.02
2018-05-02T01:13:07.660Z,9.02
2018-05-02T01:14:07.691Z,9.02
2018-05-02T01:15:07.721Z,9.08
2018-05-02T01:16:07.755Z,9.13
2018-05-02T01:17:07.781Z,9.21
2018-05-02T01:18:07.812Z,9.33
2018-05-02T01:19:07.843Z,9.36
2018-05-02T01:20:07.873Z,9.46
2018-05-02T01:21:07.904Z,9.42
2018-05-02T01:22:07.933Z,9.53
2018-05-02T01:23:07.965Z,9.54
2018-05-02T01:24:07.993Z,9.69
2018-05-02T01:25:08.025Z,9.65
2018-05-02T01:26:08.060Z,9.64
2018-05-02T01:27:08.157Z,9.64
2018-05-02T01:28:08.116Z,9.65
2018-05-02T01:29:08.147Z,9.64
2018-05-02T01:30:08.177Z,9.66
2018-05-02T01:31:08.208Z,9.81
2018-05-02T01:32:08.237Z,9.72
2018-05-02T01:33:08.270Z,9.69
2018-05-02T01:34:08.301Z,9.65
2018-05-02T01:35:08.332Z,9.74
2018-05-02T01:36:08.362Z,9.68
2018-05-02T01:37:08.392Z,9.81
2018-05-02T01:38:08.421Z,9.79
2018-05-02T01:39:08.453Z,9.74
2018-05-02T01:40:08.482Z,9.76
2018-05-02T01:41:08.512Z,9.79
2018-05-02T01:42:08.542Z,9.78
2018-05-02T01:43:08.574Z,9.86
2018-05-02T01:44:08.604Z,9.84
2018-05-02T01:45:08.644Z,9.90
2018-05-02T01:46:08.668Z,9.84
2018-05-02T01:47:08.697Z,9.83
2018-05-02T01:48:08.727Z,9.91
2018-05-02T01:49:08.758Z,9.91
2018-05-02T01:50:08.790Z,9.89
2018-05-02T01:51:08.821Z,9.97
2018-05-02T01:52:08.851Z,9.94
2018-05-02T01:53:08.880Z,9.94
2018-05-02T01:54:08.911Z,9.93
2018-05-02T01:55:08.941Z,9.91
2018-05-02T01:56:08.972Z,9.84
2018-05-02T01:57:09.003Z,9.93
2018-05-02T01:58:09.034Z,9.90
2018-05-02T01:59:09.063Z,9.83
2018-05-02T02:00:09.094Z,9.86
2018-05-02T02:01:09.126Z,9.87
2018-05-02T02:02:09.155Z,9.97
2018-05-02T02:03:09.191Z,9.91
2018-05-02T02:04:09.217Z,9.93
2018-05-02T02:05:09.246Z,9.86
2018-05-02T02:06:09.278Z,9.83
2018-05-02T02:07:09.309Z,9.93
2018-05-02T02:08:09.339Z,9.91
2018-05-02T02:09:09.370Z,9.91
2018-05-02T02:10:09.401Z,9.81
2018-05-02T02:11:09.434Z,9.68
2018-05-02T02:12:09.463Z,9.54
2018-05-02T02:13:09.493Z,9.56
2018-05-02T02:14:09.524Z,9.57
2018-05-02T02:15:09.555Z,9.54
2018-05-02T02:16:09.585Z,9.56
2018-05-02T02:17:09.617Z,9.64
2018-05-02T02:18:09.647Z,9.66
2018-05-02T02:19:09.679Z,9.72
2018-05-02T02:20:09.709Z,9.72
2018-05-02T02:21:09.740Z,9.66
2018-05-02T02:22:09.773Z,9.72
2018-05-02T02:23:09.802Z,9.65
2018-05-02T02:24:09.836Z,9.74
2018-05-02T02:25:09.863Z,9.72
2018-05-02T02:26:09.894Z,9.65
2018-05-02T02:27:09.925Z,9.76
2018-05-02T02:28:09.955Z,9.81
2018-05-02T02:29:09.985Z,9.78
2018-05-02T02:30:10.022Z,9.90
2018-05-02T02:31:10.054Z,9.89
2018-05-02T02:32:10.080Z,9.86
2018-05-02T02:33:10.111Z,9.94
2018-05-02T02:34:10.142Z,9.83
2018-05-02T02:35:10.173Z,9.69
2018-05-02T02:36:10.204Z,9.74
2018-05-02T02:37:10.233Z,9.69
2018-05-02T02:38:10.265Z,9.74
2018-05-02T02:39:10.297Z,9.83
2018-05-02T02:40:10.328Z,9.69
2018-05-02T02:41:10.358Z,9.75
2018-05-02T02:42:10.389Z,9.78
2018-05-02T02:43:10.420Z,9.86
2018-05-02T02:44:10.449Z,9.89
2018-05-02T02:45:10.481Z,9.93
2018-05-02T02:46:10.513Z,9.83
2018-05-02T02:47:10.543Z,9.93
2018-05-02T02:48:10.575Z,9.97
2018-05-02T02:49:10.605Z,10.01
2018-05-02T02:50:10.637Z,9.94
2018-05-02T02:51:10.667Z,9.93
2018-05-02T02:52:10.700Z,9.96
2018-05-02T02:53:10.729Z,9.84
2018-05-02T02:54:10.760Z,9.54
2018-05-02T02:55:10.858Z,9.48
2018-05-02T02:56:10.825Z,9.53
2018-05-02T02:57:10.852Z,9.65
2018-05-02T02:58:10.882Z,9.69
2018-05-02T02:59:10.915Z,9.83
2018-05-02T03:00:10.945Z,9.81
2018-05-02T03:01:10.976Z,9.81
2018-05-02T03:02:11.007Z,9.84
2018-05-02T03:03:11.039Z,9.97
2018-05-02T03:04:11.067Z,9.94
2018-05-02T03:05:11.103Z,9.89
2018-05-02T03:06:11.130Z,9.96
2018-05-02T03:07:11.161Z,9.93
2018-05-02T03:08:11.191Z,9.97
2018-05-02T03:09:11.223Z,9.94
2018-05-02T03:10:11.254Z,9.90
2018-05-02T03:11:11.285Z,9.97
2018-05-02T03:12:11.316Z,9.87
2018-05-02T03:13:11.347Z,9.96
2018-05-02T03:14:11.378Z,9.96
2018-05-02T03:15:11.409Z,9.93
2018-05-02T03:16:11.438Z,9.97
2018-05-02T03:17:11.471Z,9.97
2018-05-02T03:18:11.502Z,9.96
2018-05-02T03:19:11.532Z,10.11
2018-05-02T03:20:11.563Z,10.07
2018-05-02T03:21:11.593Z,10.07
2018-05-02T03:22:11.625Z,10.12
2018-05-02T03:23:11.657Z,10.18
2018-05-02T03:24:11.686Z,10.07
2018-05-02T03:25:11.718Z,10.04
2018-05-02T03:26:11.749Z,10.12
2018-05-02T03:27:11.780Z,10.05
2018-05-02T03:28:11.810Z,10.08
2018-05-02T03:29:11.841Z,10.14
2018-05-02T03:30:11.873Z,10.08
2018-05-02T03:31:11.907Z,10.14
2018-05-02T03:32:11.934Z,10.17
2018-05-02T03:33:11.966Z,10.05
2018-05-02T03:34:11.996Z,10.08
2018-05-02T03:35:12.035Z,9.91
2018-05-02T03:36:12.058Z,9.90
2018-05-02T03:37:12.090Z,9.99
2018-05-02T03:38:12.121Z,10.09
2018-05-02T03:39:12.153Z,10.07
2018-05-02T03:40:12.183Z,10.07
2018-05-02T03:41:12.215Z,10.23
2018-05-02T03:42:12.247Z,10.26
2018-05-02T03:43:12.277Z,10.26
2018-05-02T03:44:12.307Z,10.32
2018-05-02T03:45:12.338Z,10.23
2018-05-02T03:46:12.370Z,10.23
2018-05-02T03:47:12.400Z,10.27
2018-05-02T03:48:12.432Z,10.18
2018-05-02T03:49:12.463Z,10.26
2018-05-02T03:50:12.495Z,10.23
2018-05-02T03:51:12.526Z,10.15
2018-05-02T03:52:12.557Z,10.18
2018-05-02T03:53:12.589Z,10.23
2018-05-02T03:54:12.620Z,10.25
2018-05-02T03:55:12.650Z,10.20
2018-05-02T03:56:12.681Z,10.30
2018-05-02T03:57:12.712Z,10.18
2018-05-02T03:58:12.745Z,10.20
2018-05-02T03:59:12.774Z,10.20
2018-05-02T04:00:12.857Z,10.09
2018-05-02T04:01:12.836Z,10.09
2018-05-02T04:02:12.869Z,10.08
2018-05-02T04:03:12.900Z,10.11
2018-05-02T04:04:12.929Z,10.01
2018-05-02T04:05:12.960Z,10.08
2018-05-02T04:06:12.992Z,10.15
2018-05-02T04:07:13.024Z,10.18
2018-05-02T04:08:13.054Z,10.25
2018-05-02T04:09:13.086Z,10.25
2018-05-02T04:10:13.117Z,10.26
2018-05-02T04:11:13.148Z,10.34
2018-05-02T04:12:13.179Z,10.23
2018-05-02T04:13:13.213Z,10.18
2018-05-02T04:14:13.242Z,10.17
2018-05-02T04:15:13.273Z,10.20
2018-05-02T04:16:13.303Z,10.25
2018-05-02T04:17:13.340Z,10.22
2018-05-02T04:18:13.366Z,10.29
2018-05-02T04:19:13.399Z,10.26
2018-05-02T04:20:13.428Z,10.15
2018-05-02T04:21:13.457Z,10.11
2018-05-02T04:22:13.494Z,10.05
2018-05-02T04:23:13.522Z,9.91
2018-05-02T04:24:13.551Z,9.99
2018-05-02T04:25:13.583Z,10.01
2018-05-02T04:26:13.615Z,9.91
2018-05-02T04:27:13.646Z,9.99
2018-05-02T04:28:13.677Z,9.96
2018-05-02T04:29:13.707Z,9.93
2018-05-02T04:30:13.740Z,10.02
2018-05-02T04:31:13.771Z,10.11
2018-05-02T04:32:13.800Z,10.09
2018-05-02T04:33:13.832Z,10.17
2018-05-02T04:34:13.863Z,10.05
2018-05-02T04:35:13.895Z,10.14
2018-05-02T04:36:13.925Z,10.22
2018-05-02T04:37:13.957Z,10.05
2018-05-02T04:38:13.988Z,10.05
2018-05-02T04:39:14.020Z,10.11
2018-05-02T04:40:14.049Z,10.18
2018-05-02T04:41:14.082Z,10.22
2018-05-02T04:42:14.112Z,10.22
2018-05-02T04:43:14.144Z,10.32
2018-05-02T04:44:14.173Z,10.40
2018-05-02T04:45:14.205Z,10.44
2018-05-02T04:46:14.235Z,10.33
2018-05-02T04:47:14.269Z,10.32
2018-05-02T04:48:14.374Z,10.22
2018-05-02T04:49:14.330Z,10.22
2018-05-02T04:50:14.361Z,10.14
2018-05-02T04:51:14.397Z,10.09
2018-05-02T04:52:14.424Z,10.18
2018-05-02T04:53:14.456Z,10.15
2018-05-02T04:54:14.486Z,10.11
2018-05-02T04:55:14.519Z,10.07
2018-05-02T04:56:14.548Z,10.05
2018-05-02T04:57:14.580Z,9.96
2018-05-02T04:58:14.611Z,9.96
2018-05-02T04:59:14.643Z,9.96
2018-05-02T05:00:14.673Z,9.90
2018-05-02T05:01:14.704Z,9.93
2018-05-02T05:02:14.736Z,9.91
2018-05-02T05:03:14.767Z,9.79
2018-05-02T05:04:14.797Z,9.74
2018-05-02T05:05:14.828Z,9.65
2018-05-02T05:06:14.860Z,9.57
2018-05-02T05:07:14.891Z,9.57
2018-05-02T05:08:14.921Z,9.66
2018-05-02T05:09:14.953Z,9.53
2018-05-02T05:10:14.984Z,9.57
2018-05-02T05:11:15.016Z,9.58
2018-05-02T05:12:15.129Z,9.57
2018-05-02T05:13:15.076Z,9.54
2018-05-02T05:14:15.107Z,9.50
2018-05-02T05:15:15.139Z,9.32
2018-05-02T05:16:15.169Z,9.35
2018-05-02T05:17:15.200Z,9.35
2018-05-02T05:18:15.230Z,9.36
2018-05-02T05:19:15.263Z,9.31
2018-05-02T05:20:15.291Z,9.28
2018-05-02T05:21:15.324Z,9.23
2018-05-02T05:22:15.355Z,9.28
2018-05-02T05:23:15.385Z,9.31
2018-05-02T05:24:15.415Z,9.33
2018-05-02T05:25:15.447Z,9.33
2018-05-02T05:26:15.476Z,9.24
2018-05-02T05:27:15.509Z,9.33
2018-05-02T05:28:15.608Z,9.33
2018-05-02T05:29:15.569Z,9.26
2018-05-02T05:30:15.601Z,9.23
2018-05-02T05:31:15.631Z,9.28
2018-05-02T05:32:15.661Z,9.32
2018-05-02T05:33:15.691Z,9.24
2018-05-02T05:34:15.723Z,9.23
2018-05-02T05:35:15.779Z,9.28
2018-05-02T05:36:15.792Z,9.29
2018-05-02T05:37:15.815Z,9.33
2018-05-02T05:38:15.846Z,9.28
2018-05-02T05:39:15.877Z,9.31
2018-05-02T05:40:15.907Z,9.28
2018-05-02T05:41:15.937Z,9.24
2018-05-02T05:42:15.968Z,9.46
2018-05-02T05:43:15.999Z,9.86
2018-05-02T05:44:16.028Z,10.23
2018-05-02T05:45:16.059Z,10.26
2018-05-02T05:46:16.091Z,10.27
2018-05-02T05:47:16.120Z,10.18
2018-05-02T05:48:16.151Z,10.22
2018-05-02T05:49:16.181Z,10.07
2018-05-02T05:50:16.212Z,10.17
2018-05-02T05:51:16.244Z,10.29
2018-05-02T05:52:16.275Z,10.34
2018-05-02T05:53:16.305Z,10.26
2018-05-02T05:54:16.394Z,10.18
2018-05-02T05:55:16.366Z,10.02
2018-05-02T05:56:16.397Z,10.08
2018-05-02T05:57:16.427Z,10.11
2018-05-02T05:58:16.459Z,10.15
2018-05-02T05:59:16.489Z,10.14
2018-05-02T06:00:16.520Z,10.26
2018-05-02T06:01:16.552Z,10.12
2018-05-02T06:02:16.586Z,10.07
2018-05-02T06:03:16.612Z,10.05
2018-05-02T06:04:16.644Z,10.14
2018-05-02T06:05:16.673Z,9.94
2018-05-02T06:06:16.706Z,9.84
2018-05-02T06:07:16.736Z,9.84
2018-05-02T06:08:16.773Z,9.89
2018-05-02T06:09:16.798Z,10.04
2018-05-02T06:10:16.833Z,10.07
2018-05-02T06:11:16.864Z,10.14
2018-05-02T06:12:16.891Z,10.12
2018-05-02T06:13:16.922Z,10.22
2018-05-02T06:14:16.983Z,10.30
2018-05-02T06:15:17.011Z,10.23
2018-05-02T06:16:17.015Z,10.32
2018-05-02T06:17:17.075Z,10.41
2018-05-02T06:18:17.076Z,10.45
2018-05-02T06:19:17.135Z,10.60
2018-05-02T06:20:17.165Z,10.59
2018-05-02T06:21:17.195Z,10.79
2018-05-02T06:22:17.223Z,10.78
2018-05-02T06:23:17.255Z,10.71
2018-05-02T06:24:17.289Z,10.85
2018-05-02T06:25:17.317Z,10.82
2018-05-02T06:26:17.437Z,10.88
2018-05-02T06:27:17.382Z,10.89
2018-05-02T06:28:17.451Z,11.02
2018-05-02T06:29:17.447Z,10.99
2018-05-02T06:30:17.451Z,11.07
2018-05-02T06:31:17.502Z,11.09
2018-05-02T06:32:17.533Z,11.14
2018-05-02T06:33:17.581Z,11.15
2018-05-02T06:34:17.576Z,11.11
2018-05-02T06:35:17.608Z,11.35
2018-05-02T06:36:17.639Z,11.43
2018-05-02T06:37:17.671Z,11.43
2018-05-02T06:38:17.702Z,11.43
2018-05-02T06:39:17.735Z,11.43
2018-05-02T06:40:17.765Z,11.43
2018-05-02T06:41:17.796Z,11.37
2018-05-02T06:42:17.828Z,11.32
2018-05-02T06:43:17.864Z,11.49
2018-05-02T06:44:17.892Z,11.43
2018-05-02T06:45:17.922Z,11.42
2018-05-02T06:46:17.955Z,11.39
2018-05-02T06:47:17.989Z,11.42
2018-05-02T06:48:18.019Z,11.42
2018-05-02T06:49:18.138Z,11.61
2018-05-02T06:50:18.139Z,11.57
2018-05-02T06:51:18.114Z,11.55
2018-05-02T06:52:18.146Z,11.67
2018-05-02T06:53:18.178Z,11.64
2018-05-02T06:54:18.209Z,11.51
2018-05-02T06:55:18.244Z,11.40
2018-05-02T06:56:18.273Z,11.37
2018-05-02T06:57:18.310Z,11.15
2018-05-02T06:58:18.339Z,11.09
2018-05-02T06:59:18.372Z,11.10
2018-05-02T07:00:18.402Z,11.19
2018-05-02T07:01:18.457Z,11.25
2018-05-02T07:02:18.467Z,11.15
2018-05-02T07:03:18.500Z,11.03
2018-05-02T07:04:18.530Z,11.11
2018-05-02T07:05:18.564Z,11.04
2018-05-02T07:06:18.596Z,11.10
2018-05-02T07:07:18.632Z,11.11
2018-05-02T07:08:18.659Z,11.10
2018-05-02T07:09:18.693Z,11.14
2018-05-02T07:10:18.725Z,11.07
2018-05-02T07:11:18.758Z,11.15
2018-05-02T07:12:18.789Z,11.09
2018-05-02T07:13:18.883Z,10.94
2018-05-02T07:14:18.853Z,11.02
2018-05-02T07:15:18.889Z,11.03
2018-05-02T07:16:18.918Z,11.09
2018-05-02T07:17:18.951Z,11.09
2018-05-02T07:18:18.983Z,11.18
2018-05-02T07:19:19.014Z,11.06
2018-05-02T07:20:19.046Z,11.04
2018-05-02T07:21:19.078Z,11.09
2018-05-02T07:22:19.111Z,10.94
2018-05-02T07:23:19.143Z,11.14
2018-05-02T07:24:19.176Z,11.32
2018-05-02T07:25:19.208Z,11.19
2018-05-02T07:26:19.240Z,11.09
2018-05-02T07:27:19.273Z,11.10
2018-05-02T07:28:19.305Z,11.18
2018-05-02T07:29:19.337Z,11.17
2018-05-02T07:30:19.370Z,11.15
2018-05-02T07:31:19.403Z,11.22
2018-05-02T07:32:19.434Z,11.33
2018-05-02T07:33:19.466Z,11.28
2018-05-02T07:34:19.499Z,11.28
2018-05-02T07:35:19.531Z,11.35
2018-05-02T07:36:19.569Z,11.29
2018-05-02T07:37:19.596Z,11.15
2018-05-02T07:38:19.628Z,11.35
2018-05-02T07:39:19.661Z,11.35
2018-05-02T07:40:19.694Z,11.54
2018-05-02T07:41:19.727Z,11.64
2018-05-02T07:42:19.759Z,11.62
2018-05-02T07:43:19.792Z,11.75
2018-05-02T07:44:19.823Z,11.62
2018-05-02T07:45:19.855Z,11.75
2018-05-02T07:46:19.889Z,11.76
2018-05-02T07:47:19.922Z,11.61
2018-05-02T07:48:19.954Z,11.64
2018-05-02T07:49:19.988Z,11.67
2018-05-02T07:50:20.021Z,11.78
2018-05-02T07:51:20.054Z,11.90
2018-05-02T07:52:20.085Z,11.82
2018-05-02T07:53:20.122Z,11.86
2018-05-02T07:54:20.151Z,11.98
2018-05-02T07:55:20.205Z,11.79
2018-05-02T07:56:20.240Z,11.99
2018-05-02T07:57:20.251Z,11.79
2018-05-02T07:58:20.283Z,11.86
2018-05-02T07:59:20.318Z,12.02
2018-05-02T08:00:20.351Z,11.75
2018-05-02T08:01:20.384Z,11.95
2018-05-02T08:02:20.416Z,11.95
2018-05-02T08:03:20.451Z,11.94
2018-05-02T08:04:20.482Z,12.23
2018-05-02T08:05:20.521Z,12.05
2018-05-02T08:06:20.552Z,12.10
2018-05-02T08:07:20.585Z,11.98
2018-05-02T08:08:20.617Z,12.12
2018-05-02T08:09:20.651Z,12.12
2018-05-02T08:10:20.684Z,12.07
2018-05-02T08:11:20.719Z,12.38
2018-05-02T08:12:20.751Z,12.50
2018-05-02T08:13:20.785Z,12.53
2018-05-02T08:14:20.820Z,12.65
2018-05-02T08:15:20.852Z,12.74
2018-05-02T08:16:20.916Z,12.74
2018-05-02T08:17:20.924Z,12.62
2018-05-02T08:18:20.953Z,12.52
2018-05-02T08:19:21.034Z,12.50
2018-05-02T08:20:21.022Z,12.57
2018-05-02T08:21:21.058Z,12.79
2018-05-02T08:22:21.094Z,12.62
2018-05-02T08:23:21.125Z,12.71
2018-05-02T08:24:21.158Z,12.86
2018-05-02T08:25:21.200Z,12.92
2018-05-02T08:26:21.242Z,12.68
2018-05-02T08:27:21.261Z,12.87
2018-05-02T08:28:21.294Z,12.92
2018-05-02T08:29:21.328Z,13.01
2018-05-02T08:30:21.367Z,13.03
2018-05-02T08:31:21.398Z,13.23
2018-05-02T08:32:21.434Z,13.15
2018-05-02T08:33:21.466Z,13.25
2018-05-02T08:34:21.501Z,13.00
2018-05-02T08:35:21.535Z,13.20
2018-05-02T08:36:21.569Z,12.79
2018-05-02T08:37:21.605Z,13.11
2018-05-02T08:38:21.639Z,13.45
2018-05-02T08:39:21.673Z,13.44
2018-05-02T08:40:21.708Z,13.51
2018-05-02T08:41:21.742Z,13.66
2018-05-02T08:42:21.786Z,13.44
2018-05-02T08:43:21.813Z,13.23
2018-05-02T08:44:21.847Z,13.12
2018-05-02T08:45:21.882Z,13.15
2018-05-02T08:46:21.917Z,13.23
2018-05-02T08:47:21.951Z,13.41
2018-05-02T08:48:21.985Z,13.32
2018-05-02T08:49:22.021Z,13.20
2018-05-02T08:50:22.057Z,13.78
2018-05-02T08:51:22.092Z,13.91
2018-05-02T08:52:22.124Z,14.20
2018-05-02T08:53:22.160Z,14.29
2018-05-02T08:54:22.195Z,14.37
2018-05-02T08:55:22.235Z,14.52
2018-05-02T08:56:22.265Z,14.17
2018-05-02T08:57:22.339Z,14.25
2018-05-02T08:58:22.336Z,14.37
2018-05-02T08:59:22.374Z,14.45
2018-05-02T09:00:22.407Z,14.36
2018-05-02T09:01:22.442Z,14.20
2018-05-02T09:02:22.483Z,14.09
2018-05-02T09:03:22.514Z,14.24
2018-05-02T09:04:22.547Z,14.27
2018-05-02T09:05:22.588Z,14.46
2018-05-02T09:06:22.619Z,14.35
2018-05-02T09:07:22.654Z,14.50
2018-05-02T09:08:22.690Z,14.36
2018-05-02T09:09:22.724Z,14.57
2018-05-02T09:10:22.764Z,14.69
2018-05-02T09:11:22.798Z,14.99
2018-05-02T09:12:22.832Z,15.06
2018-05-02T09:13:22.868Z,15.25
2018-05-02T09:14:22.907Z,14.92
2018-05-02T09:15:22.941Z,14.64
2018-05-02T09:16:22.975Z,14.78
2018-05-02T09:17:23.011Z,15.13
2018-05-02T09:18:23.048Z,15.11
2018-05-02T09:19:23.084Z,15.14
2018-05-02T09:20:23.120Z,15.21
2018-05-02T09:21:23.155Z,15.38
2018-05-02T09:22:23.191Z,15.60
2018-05-02T09:23:23.229Z,15.68
2018-05-02T09:24:23.264Z,15.84
2018-05-02T09:25:23.301Z,15.89
2018-05-02T09:26:23.337Z,16.09
2018-05-02T09:27:23.375Z,16.00
2018-05-02T09:28:23.409Z,15.84
2018-05-02T09:29:23.449Z,15.75
2018-05-02T09:30:23.483Z,15.93
2018-05-02T09:31:23.520Z,15.97
2018-05-02T09:32:23.556Z,16.20
2018-05-02T09:33:23.592Z,16.35
2018-05-02T09:34:23.630Z,16.43
2018-05-02T09:35:23.666Z,16.50
2018-05-02T09:36:23.702Z,16.79
2018-05-02T09:37:23.741Z,16.67
2018-05-02T09:38:23.779Z,16.82
2018-05-02T09:39:23.816Z,16.68
2018-05-02T09:40:23.852Z,16.76
2018-05-02T09:41:23.888Z,17.06
2018-05-02T09:42:23.926Z,17.30
2018-05-02T09:43:23.964Z,16.43
2018-05-02T09:44:24.002Z,16.63
2018-05-02T09:45:24.042Z,16.56
2018-05-02T09:46:24.078Z,16.88
2018-05-02T09:47:24.115Z,16.89
2018-05-02T09:48:24.154Z,17.06
2018-05-02T09:49:24.195Z,16.96
2018-05-02T09:50:24.230Z,17.14
2018-05-02T09:51:24.269Z,17.48
2018-05-02T09:52:24.304Z,17.58
2018-05-02T09:53:24.343Z,17.59
2018-05-02T09:54:24.380Z,17.58
2018-05-02T09:55:24.426Z,17.62
2018-05-02T09:56:24.461Z,17.75
2018-05-02T09:57:24.494Z,17.92
2018-05-02T09:58:24.534Z,18.15
2018-05-02T09:59:24.572Z,18.14
2018-05-02T10:00:24.609Z,18.30
2018-05-02T10:01:24.649Z,17.96
2018-05-02T10:02:24.688Z,17.77
2018-05-02T10:03:24.725Z,17.77
2018-05-02T10:04:24.796Z,17.89
2018-05-02T10:05:24.803Z,18.07
2018-05-02T10:06:24.842Z,17.99
2018-05-02T10:07:24.895Z,17.72
2018-05-02T10:08:24.918Z,17.64
2018-05-02T10:09:24.958Z,17.54
2018-05-02T10:10:24.997Z,17.33
2018-05-02T10:11:25.035Z,16.98
2018-05-02T10:12:25.145Z,17.25
2018-05-02T10:13:25.166Z,17.49
2018-05-02T10:14:25.151Z,17.25
2018-05-02T10:15:25.190Z,17.21
2018-05-02T10:16:25.228Z,17.72
2018-05-02T10:17:25.265Z,17.74
2018-05-02T10:18:25.378Z,17.44
2018-05-02T10:19:25.345Z,17.11
2018-05-02T10:20:25.380Z,17.18
2018-05-02T10:21:25.419Z,17.08
2018-05-02T10:22:25.459Z,17.25
2018-05-02T10:23:25.496Z,17.19
2018-05-02T10:24:25.543Z,17.40
2018-05-02T10:25:25.572Z,17.59
2018-05-02T10:26:25.614Z,17.95
2018-05-02T10:27:25.650Z,17.95
2018-05-02T10:28:25.689Z,18.05
2018-05-02T10:29:25.728Z,17.75
2018-05-02T10:30:25.767Z,17.58
2018-05-02T10:31:25.804Z,17.93
2018-05-02T10:32:25.843Z,17.95
2018-05-02T10:33:25.885Z,18.11
2018-05-02T10:34:25.919Z,18.11
2018-05-02T10:35:25.960Z,18.11
2018-05-02T10:36:25.998Z,18.33
2018-05-02T10:37:26.036Z,18.75
2018-05-02T10:38:26.076Z,18.75
2018-05-02T10:39:26.118Z,18.66
2018-05-02T10:40:26.153Z,18.60
2018-05-02T10:41:26.191Z,18.72
2018-05-02T10:42:26.231Z,18.26
2018-05-02T10:43:26.271Z,18.37
2018-05-02T10:44:26.308Z,18.80
2018-05-02T10:45:26.348Z,18.69
2018-05-02T10:46:26.388Z,18.35
2018-05-02T10:47:26.427Z,18.29
2018-05-02T10:48:26.465Z,18.26
2018-05-02T10:49:26.505Z,18.41
2018-05-02T10:50:26.582Z,18.58
2018-05-02T10:51:26.585Z,18.60
2018-05-02T10:52:26.623Z,18.67
2018-05-02T10:53:26.661Z,18.41
2018-05-02T10:54:26.705Z,18.55
2018-05-02T10:55:26.739Z,19.02
2018-05-02T10:56:26.779Z,19.02
2018-05-02T10:57:26.816Z,19.04
2018-05-02T10:58:26.857Z,19.13
2018-05-02T10:59:26.895Z,18.76
2018-05-02T11:00:26.932Z,19.11
2018-05-02T11:01:26.973Z,19.02
2018-05-02T11:02:27.011Z,19.10
2018-05-02T11:03:27.051Z,19.44
2018-05-02T11:04:27.089Z,19.11
2018-05-02T11:05:27.133Z,19.07
2018-05-02T11:06:27.169Z,17.89
2018-05-02T11:07:27.208Z,18.05
2018-05-02T11:08:27.416Z,17.95
2018-05-02T11:09:27.285Z,18.11
2018-05-02T11:10:27.324Z,18.45
2018-05-02T11:11:27.364Z,18.76
2018-05-02T11:12:27.401Z,19.06
2018-05-02T11:13:27.441Z,18.87
2018-05-02T11:14:27.480Z,18.90
2018-05-02T11:15:27.521Z,19.14
2018-05-02T11:16:27.558Z,18.72
2018-05-02T11:17:27.600Z,18.37
2018-05-02T11:18:27.637Z,18.58
2018-05-02T11:19:27.676Z,18.67
2018-05-02T11:20:27.716Z,19.08
2018-05-02T11:21:27.754Z,19.43
2018-05-02T11:22:27.795Z,19.87
2018-05-02T11:23:27.834Z,20.21
2018-05-02T11:24:27.874Z,19.76
2018-05-02T11:25:27.911Z,19.22
2018-05-02T11:26:27.951Z,18.85
2018-05-02T11:27:27.998Z,19.02
2018-05-02T11:28:28.081Z,18.75
2018-05-02T11:29:28.069Z,18.73
2018-05-02T11:30:28.108Z,18.63
2018-05-02T11:31:28.148Z,18.85
2018-05-02T11:32:28.186Z,19.47
2018-05-02T11:33:28.227Z,19.51
2018-05-02T11:34:28.266Z,19.43
2018-05-02T11:35:28.306Z,19.43
2018-05-02T11:36:28.345Z,19.94
2018-05-02T11:37:28.384Z,19.55
2018-05-02T11:38:28.423Z,19.99
2018-05-02T11:39:28.464Z,20.61
2018-05-02T11:40:28.533Z,20.58
2018-05-02T11:41:28.542Z,20.64
2018-05-02T11:42:28.593Z,21.09
2018-05-02T11:43:28.624Z,21.94
2018-05-02T11:44:28.668Z,22.72
2018-05-02T11:45:28.702Z,23.19
2018-05-02T11:46:28.746Z,23.13
2018-05-02T11:47:28.785Z,22.02
2018-05-02T11:48:28.825Z,24.43
2018-05-02T11:49:28.877Z,25.13
2018-05-02T11:50:28.911Z,25.27
2018-05-02T11:51:28.953Z,26.01
2018-05-02T11:52:28.997Z,25.20
2018-05-02T11:53:29.037Z,24.61
2018-05-02T11:54:29.081Z,23.42
2018-05-02T11:55:29.125Z,23.43
2018-05-02T11:56:29.167Z,24.06
2018-05-02T11:57:29.212Z,24.37
2018-05-02T11:58:29.259Z,25.10
2018-05-02T11:59:29.300Z,25.52
2018-05-02T12:00:29.343Z,26.36
2018-05-02T12:01:29.387Z,26.54
2018-05-02T12:02:29.486Z,27.39
2018-05-02T12:03:29.547Z,28.73
2018-05-02T12:04:29.524Z,29.33
2018-05-02T12:05:29.568Z,29.05
2018-05-02T12:06:29.614Z,28.15
2018-05-02T12:07:29.660Z,28.09
2018-05-02T12:08:29.706Z,27.90
2018-05-02T12:09:29.751Z,28.19
2018-05-02T12:10:29.881Z,28.67
2018-05-02T12:11:29.851Z,28.46
2018-05-02T12:12:29.892Z,28.33
2018-05-02T12:13:29.940Z,28.52
2018-05-02T12:14:29.987Z,29.16
2018-05-02T12:15:30.036Z,29.51
2018-05-02T12:16:30.083Z,29.82
2018-05-02T12:17:30.131Z,29.79
2018-05-02T12:18:30.180Z,29.73
2018-05-02T12:19:30.228Z,28.00
2018-05-02T12:20:30.276Z,26.89
2018-05-02T12:21:30.325Z,27.09
2018-05-02T12:22:30.373Z,26.72
2018-05-02T12:23:30.423Z,26.06
2018-05-02T12:24:30.470Z,25.65
2018-05-02T12:25:30.521Z,25.02
2018-05-02T12:26:30.568Z,25.57
2018-05-02T12:27:30.615Z,25.47
2018-05-02T12:28:30.663Z,26.06
2018-05-02T12:29:30.712Z,26.17
2018-05-02T12:30:30.762Z,26.99
2018-05-02T12:31:30.808Z,26.32
2018-05-02T12:32:30.854Z,25.77
2018-05-02T12:33:30.903Z,25.36
2018-05-02T12:34:30.950Z,24.30
2018-05-02T12:35:31.173Z,23.53
2018-05-02T12:36:31.045Z,24.20
2018-05-02T12:37:31.092Z,24.35
2018-05-02T12:38:31.140Z,24.18
2018-05-02T12:39:31.192Z,24.12
2018-05-02T12:40:31.233Z,24.08
2018-05-02T12:41:31.284Z,23.00
2018-05-02T12:42:31.329Z,22.86
2018-05-02T12:43:31.376Z,23.01
2018-05-02T12:44:31.425Z,23.53
2018-05-02T12:45:31.468Z,23.65
2018-05-02T12:46:31.515Z,22.82
2018-05-02T12:47:31.563Z,22.52
2018-05-02T12:48:31.610Z,23.00
2018-05-02T12:49:31.656Z,23.69
2018-05-02T12:50:31.702Z,24.18
2018-05-02T12:51:31.747Z,23.68
2018-05-02T12:52:31.792Z,24.64
2018-05-02T12:53:31.845Z,25.32
2018-05-02T12:54:31.885Z,25.60
2018-05-02T12:55:31.932Z,25.57
2018-05-02T12:56:31.978Z,25.05
2018-05-02T12:57:32.021Z,24.78
2018-05-02T12:58:32.068Z,24.84
2018-05-02T12:59:32.114Z,24.24
2018-05-02T13:00:32.158Z,23.55
2018-05-02T13:01:32.205Z,24.20